Time;durP1;ratioP1;P1;durP2;ratioP2;P2;SDS_P1;SDS_P2;PMS_P1;PMS_P2;Temp;Humidity;BMP_temperature;BMP_pressure;BME280_temperature;BME280_humidity;BME280_pressure;Samples;Min_cycle;Max_cycle;Signal;HPM_P1;HPM_P2
2022/06/26 00:00:53;;;;;;;33.38;29.77;;;19.30;99.90;;;;;;6170933;28;20054;-70
2022/06/26 00:03:56;;;;;;;35.40;29.75;;;19.30;99.90;;;;;;6163103;28;20043;-70
2022/06/26 00:06:59;;;;;;;34.08;30.50;;;19.20;99.90;;;;;;6173867;28;20047;-71
2022/06/26 00:10:02;;;;;;;31.85;28.42;;;19.20;99.90;;;;;;6178469;28;20058;-70
2022/06/26 00:13:04;;;;;;;34.70;30.75;;;19.20;99.90;;;;;;6154659;28;20579;-70
2022/06/26 00:16:06;;;;;;;36.25;32.13;;;19.10;99.90;;;;;;6172582;28;20058;-71
2022/06/26 00:19:09;;;;;;;34.22;30.52;;;19.10;99.90;;;;;;6170989;28;20412;-71
2022/06/26 00:22:11;;;;;;;35.03;31.20;;;19.10;99.90;;;;;;6156254;28;20523;-70
2022/06/26 00:25:13;;;;;;;35.53;31.05;;;19.10;99.90;;;;;;6161003;28;20414;-70
2022/06/26 00:28:15;;;;;;;35.97;30.67;;;19.00;99.90;;;;;;6187099;28;20055;-71
2022/06/26 00:31:17;;;;;;;36.47;32.60;;;19.00;99.90;;;;;;6173138;28;20661;-70
2022/06/26 00:34:20;;;;;;;35.22;31.52;;;18.90;99.90;;;;;;6155121;28;20055;-71
2022/06/26 00:37:22;;;;;;;37.50;32.70;;;18.90;99.90;;;;;;6152312;28;20207;-70
2022/06/26 00:40:24;;;;;;;38.03;33.60;;;18.90;99.90;;;;;;6172433;28;20047;-70
2022/06/26 00:43:28;;;;;;;38.53;32.88;;;18.90;99.90;;;;;;6169125;28;20405;-70
2022/06/26 00:46:29;;;;;;;39.83;33.25;;;18.90;99.90;;;;;;6136001;28;20216;-70
2022/06/26 00:49:33;;;;;;;36.25;32.35;;;18.90;99.90;;;;;;6169561;28;20420;-70
2022/06/26 00:52:36;;;;;;;40.53;33.13;;;18.90;99.90;;;;;;6172401;28;20051;-70
2022/06/26 00:55:39;;;;;;;36.45;32.53;;;18.90;99.90;;;;;;6173264;28;20047;-70
2022/06/26 00:58:41;;;;;;;34.70;30.95;;;18.80;99.90;;;;;;6172713;28;20047;-70
2022/06/26 01:01:43;;;;;;;35.33;31.52;;;18.80;99.90;;;;;;6164768;28;20122;-70
2022/06/26 01:04:46;;;;;;;36.28;32.47;;;18.80;99.90;;;;;;6155908;28;20389;-71
2022/06/26 01:07:48;;;;;;;36.67;32.60;;;18.80;99.90;;;;;;6176978;28;20051;-71
2022/06/26 01:10:50;;;;;;;36.72;32.78;;;18.70;99.90;;;;;;6159040;28;20062;-71
2022/06/26 01:13:54;;;;;;;38.47;32.90;;;18.70;99.90;;;;;;6176576;28;20057;-71
2022/06/26 01:16:56;;;;;;;35.97;32.08;;;18.70;99.90;;;;;;6187564;28;20054;-71
2022/06/26 01:20:00;;;;;;;39.10;32.42;;;18.60;99.90;;;;;;6176215;28;20058;-71
2022/06/26 01:23:06;;;;;;;36.47;32.70;;;18.60;99.90;;;;;;6165807;28;20043;-70
2022/06/26 01:26:08;;;;;;;38.35;34.25;;;18.60;99.90;;;;;;6152774;28;20073;-71
2022/06/26 01:29:10;;;;;;;37.13;33.22;;;18.50;99.90;;;;;;6166091;28;20396;-70
2022/06/26 01:32:12;;;;;;;35.40;31.67;;;18.50;99.90;;;;;;6158808;28;20073;-71
2022/06/26 01:35:14;;;;;;;36.00;32.10;;;18.50;99.90;;;;;;6180335;28;20518;-71
2022/06/26 01:38:20;;;;;;;36.70;32.40;;;18.50;99.90;;;;;;6159363;28;20522;-70
2022/06/26 01:41:22;;;;;;;37.83;33.38;;;18.40;99.90;;;;;;6156215;28;20066;-70
2022/06/26 01:44:24;;;;;;;36.90;32.42;;;18.40;99.90;;;;;;6158520;28;20051;-70
2022/06/26 01:47:26;;;;;;;38.45;33.58;;;18.40;99.90;;;;;;6159468;28;20519;-71
2022/06/26 01:50:28;;;;;;;36.60;32.55;;;18.30;99.90;;;;;;6159125;28;20492;-70
2022/06/26 01:53:32;;;;;;;42.00;33.97;;;18.30;99.90;;;;;;6175799;28;20061;-70
2022/06/26 01:56:34;;;;;;;37.15;33.25;;;18.30;99.90;;;;;;6159167;28;20105;-70
2022/06/26 01:59:36;;;;;;;39.03;33.72;;;18.30;99.90;;;;;;6175505;28;20038;-70
2022/06/26 02:02:37;;;;;;;39.67;34.35;;;18.30;99.90;;;;;;6174113;28;20043;-71
2022/06/26 02:05:40;;;;;;;38.40;34.20;;;18.30;99.90;;;;;;6158955;28;20058;-71
2022/06/26 02:08:43;;;;;;;38.40;33.90;;;18.20;99.90;;;;;;6186265;28;20055;-71
2022/06/26 02:15:05;;;;;;;37.53;33.38;;;18.20;99.90;;;;;;6176061;28;20056;-71
2022/06/26 02:18:07;;;;;;;39.58;33.92;;;18.10;99.90;;;;;;6173898;28;20054;-70
2022/06/26 02:21:10;;;;;;;36.42;32.05;;;18.20;99.90;;;;;;6175654;28;20047;-71
2022/06/26 02:24:14;;;;;;;14.80;13.00;;;18.20;99.90;;;;;;6161086;28;20058;-70
2022/06/26 02:27:16;;;;;;;17.08;15.38;;;18.20;99.90;;;;;;6199882;28;20046;-70
2022/06/26 02:30:17;;;;;;;12.90;11.60;;;18.80;99.90;;;;;;6175592;28;20066;-70
2022/06/26 02:33:22;;;;;;;9.65;8.65;;;19.40;99.90;;;;;;6172568;28;20047;-70
2022/06/26 02:36:24;;;;;;;15.82;13.65;;;19.80;99.90;;;;;;6175543;28;20054;-70
2022/06/26 02:39:27;;;;;;;8.82;7.82;;;20.10;99.90;;;;;;6152344;28;20515;-70
2022/06/26 02:42:29;;;;;;;9.88;8.50;;;20.30;99.90;;;;;;6166421;28;20065;-70
2022/06/26 02:45:31;;;;;;;12.13;10.60;;;20.60;99.90;;;;;;6175219;28;20043;-71
2022/06/26 02:48:33;;;;;;;8.25;7.35;;;20.70;99.90;;;;;;6173068;28;20122;-70
2022/06/26 02:51:35;;;;;;;7.18;6.07;;;20.80;99.90;;;;;;6174503;28;20053;-70
2022/06/26 02:54:38;;;;;;;11.52;9.60;;;20.90;99.90;;;;;;6172573;28;20054;-70
2022/06/26 02:57:40;;;;;;;11.88;10.50;;;21.10;99.90;;;;;;6174425;28;20055;-70
2022/06/26 03:00:42;;;;;;;18.42;14.73;;;21.10;99.90;;;;;;6179102;28;20053;-70
2022/06/26 03:03:44;;;;;;;18.23;15.13;;;20.80;99.90;;;;;;6173848;28;20046;-70
2022/06/26 03:06:46;;;;;;;19.92;15.82;;;20.50;99.90;;;;;;6174839;28;20050;-70
2022/06/26 03:09:49;;;;;;;18.73;15.40;;;20.20;99.90;;;;;;6173007;28;20476;-70
2022/06/26 03:12:52;;;;;;;8.07;6.97;;;20.00;99.90;;;;;;6173330;28;20042;-70
2022/06/26 03:15:54;;;;;;;14.70;12.10;;;19.80;99.90;;;;;;6184911;28;20057;-70
2022/06/26 03:18:55;;;;;;;18.23;14.45;;;19.80;99.90;;;;;;6154252;28;20058;-70
2022/06/26 03:21:57;;;;;;;19.52;16.23;;;19.90;99.90;;;;;;6166170;28;20055;-70
2022/06/26 03:25:01;;;;;;;20.60;16.77;;;19.90;99.90;;;;;;6153932;28;20051;-70
2022/06/26 03:28:03;;;;;;;20.83;16.67;;;19.80;99.90;;;;;;6159985;28;20497;-70
2022/06/26 03:31:05;;;;;;;6.43;5.45;;;19.70;99.90;;;;;;6144302;29;20047;-70
2022/06/26 03:34:07;;;;;;;8.52;7.63;;;19.60;99.90;;;;;;6171603;28;20051;-70
2022/06/26 03:37:09;;;;;;;15.85;10.85;;;19.80;99.90;;;;;;6155804;28;20062;-70
2022/06/26 03:40:13;;;;;;;12.80;10.50;;;20.00;99.90;;;;;;6172641;28;20049;-70
2022/06/26 03:43:15;;;;;;;9.25;7.40;;;20.10;99.90;;;;;;6172340;28;20047;-70
2022/06/26 03:46:17;;;;;;;12.18;10.27;;;20.10;99.90;;;;;;6172975;28;20058;-71
2022/06/26 03:49:19;;;;;;;9.15;5.55;;;20.20;99.90;;;;;;6161232;28;20484;-70
2022/06/26 03:52:22;;;;;;;15.70;11.50;;;20.00;99.90;;;;;;6177431;28;20050;-71
2022/06/26 03:55:25;;;;;;;11.07;8.80;;;19.90;99.90;;;;;;6156454;28;20142;-70
2022/06/26 03:58:27;;;;;;;10.05;7.30;;;19.60;99.90;;;;;;6173053;28;20062;-71
2022/06/26 04:01:29;;;;;;;12.00;7.72;;;19.50;99.90;;;;;;6173486;28;20177;-71
2022/06/26 04:04:31;;;;;;;8.07;6.55;;;19.50;99.90;;;;;;6172692;28;20081;-71
2022/06/26 04:07:33;;;;;;;9.10;7.07;;;19.30;99.90;;;;;;6179875;28;20051;-71
2022/06/26 04:10:37;;;;;;;8.85;6.93;;;19.30;99.90;;;;;;6156401;28;20043;-71
2022/06/26 04:13:39;;;;;;;;;;;19.20;99.90;;;;;;6174306;28;20051;-71
2022/06/26 04:16:41;;;;;;;7.45;6.20;;;19.10;99.90;;;;;;6173351;28;20457;-70
2022/06/26 04:19:43;;;;;;;8.65;5.63;;;19.00;99.90;;;;;;6152916;28;20086;-70
2022/06/26 04:22:45;;;;;;;7.65;5.18;;;18.90;99.90;;;;;;6150206;28;20054;-70
2022/06/26 04:25:48;;;;;;;7.53;5.20;;;19.00;99.90;;;;;;6173350;28;20511;-70
2022/06/26 04:28:50;;;;;;;5.88;5.30;;;19.10;99.90;;;;;;6153724;28;20038;-70
2022/06/26 04:31:52;;;;;;;5.05;4.40;;;19.10;99.90;;;;;;6171746;28;20488;-70
2022/06/26 04:34:54;;;;;;;6.82;4.07;;;19.10;99.90;;;;;;6147556;28;20058;-70
2022/06/26 04:37:56;;;;;;;7.28;5.25;;;19.20;99.90;;;;;;6151595;28;20134;-70
2022/06/26 04:41:31;;;;;;;9.63;5.50;;;19.30;99.90;;;;;;6163082;28;20061;-70
2022/06/26 04:44:21;;;;;;;5.63;5.03;;;19.30;99.90;;;;;;6171577;28;20077;-70
2022/06/26 04:47:23;;;;;;;5.15;4.65;;;19.30;99.90;;;;;;6158955;28;20507;-70
2022/06/26 04:50:25;;;;;;;5.68;3.47;;;19.40;99.90;;;;;;6177698;28;20055;-70
2022/06/26 04:53:27;;;;;;;3.88;3.47;;;19.50;99.90;;;;;;6160085;28;20050;-71
2022/06/26 04:56:30;;;;;;;3.10;2.20;;;19.60;99.90;;;;;;6176280;28;20065;-71
2022/06/26 04:59:32;;;;;;;5.22;1.98;;;19.80;99.90;;;;;;6163698;28;20415;-71
2022/06/26 05:02:34;;;;;;;2.47;1.80;;;20.00;99.90;;;;;;6176435;28;20061;-71
2022/06/26 05:05:36;;;;;;;3.13;1.88;;;20.20;99.90;;;;;;6176502;28;20050;-71
2022/06/26 05:08:38;;;;;;;2.75;2.00;;;20.20;99.90;;;;;;6174962;28;20047;-71
2022/06/26 05:11:42;;;;;;;3.05;2.15;;;20.30;99.90;;;;;;6176796;28;20047;-71
2022/06/26 05:14:44;;;;;;;2.88;2.30;;;20.30;99.90;;;;;;6168996;28;20065;-71
2022/06/26 05:17:46;;;;;;;3.60;2.28;;;20.20;99.90;;;;;;6183684;28;20047;-71
2022/06/26 05:20:48;;;;;;;4.15;2.38;;;20.10;99.90;;;;;;6158503;28;20051;-71
2022/06/26 05:23:49;;;;;;;3.75;2.10;;;20.10;99.90;;;;;;6175302;28;20058;-71
2022/06/26 05:26:53;;;;;;;2.28;2.03;;;20.10;99.90;;;;;;6158859;28;20066;-71
2022/06/26 05:29:55;;;;;;;3.28;2.25;;;20.30;99.90;;;;;;6176195;28;20085;-71
2022/06/26 05:32:56;;;;;;;3.13;1.95;;;20.50;99.90;;;;;;6172759;28;20051;-71
2022/06/26 05:35:58;;;;;;;4.55;2.25;;;20.50;99.90;;;;;;6171998;28;20053;-72
2022/06/26 05:39:00;;;;;;;3.13;1.88;;;20.50;99.90;;;;;;6176487;28;20054;-71
2022/06/26 05:42:04;;;;;;;2.75;1.83;;;20.50;99.90;;;;;;6158638;28;20492;-71
2022/06/26 05:45:07;;;;;;;2.75;1.80;;;20.50;99.90;;;;;;6176459;28;20054;-71
2022/06/26 05:48:09;;;;;;;3.07;2.13;;;20.50;99.90;;;;;;6178194;28;20177;-71
2022/06/26 05:51:11;;;;;;;2.08;1.38;;;20.50;99.90;;;;;;6170015;28;20551;-71
2022/06/26 05:54:13;;;;;;;4.10;2.65;;;20.50;99.90;;;;;;6174844;28;20046;-71
2022/06/26 05:57:17;;;;;;;3.08;2.00;;;20.50;99.90;;;;;;6154521;28;20408;-71
2022/06/26 06:00:19;;;;;;;3.30;1.90;;;20.60;99.90;;;;;;6161606;28;20077;-71
2022/06/26 06:03:20;;;;;;;2.67;1.90;;;20.60;99.90;;;;;;6158905;28;20047;-71
2022/06/26 06:06:22;;;;;;;2.45;1.80;;;20.80;99.90;;;;;;6182911;28;20043;-71
2022/06/26 06:09:24;;;;;;;2.72;2.10;;;21.00;99.90;;;;;;6174340;28;20062;-71
2022/06/26 06:12:28;;;;;;;2.25;2.00;;;21.20;99.90;;;;;;6160452;28;20054;-71
2022/06/26 06:15:29;;;;;;;2.60;2.25;;;21.40;99.90;;;;;;6178110;28;20050;-71
2022/06/26 06:18:31;;;;;;;2.72;1.90;;;21.30;99.90;;;;;;6199761;28;20057;-71
2022/06/26 06:21:33;;;;;;;4.45;2.85;;;21.30;99.90;;;;;;6175201;28;20485;-71
2022/06/26 06:24:35;;;;;;;3.15;2.00;;;21.40;99.90;;;;;;6174035;28;20051;-71
2022/06/26 06:27:39;;;;;;;3.75;2.85;;;21.50;99.90;;;;;;6175157;28;20342;-71
2022/06/26 06:30:41;;;;;;;2.90;2.70;;;21.60;99.90;;;;;;6175469;28;20047;-71
2022/06/26 06:33:43;;;;;;;3.63;2.60;;;21.60;99.90;;;;;;6156903;28;20043;-71
2022/06/26 06:36:45;;;;;;;3.13;2.33;;;21.70;99.90;;;;;;6173350;28;20139;-71
2022/06/26 06:39:46;;;;;;;2.20;1.38;;;21.80;99.90;;;;;;6174595;28;20045;-71
2022/06/26 06:42:50;;;;;;;3.53;2.63;;;21.90;99.90;;;;;;6175086;28;20055;-71
2022/06/26 06:45:52;;;;;;;1.70;1.60;;;22.00;99.90;;;;;;6173298;28;20054;-71
2022/06/26 06:48:54;;;;;;;5.35;4.00;;;22.00;99.90;;;;;;6174867;28;20053;-71
2022/06/26 06:51:56;;;;;;;6.18;4.40;;;22.10;99.90;;;;;;6156317;28;20078;-71
2022/06/26 06:54:58;;;;;;;2.15;1.92;;;22.10;99.90;;;;;;6165444;28;20393;-71
2022/06/26 06:58:01;;;;;;;1.58;1.40;;;22.10;99.90;;;;;;6173290;28;20047;-71
2022/06/26 07:01:03;;;;;;;1.80;1.45;;;22.20;99.90;;;;;;6169737;28;20038;-71
2022/06/26 07:04:06;;;;;;;2.85;2.58;;;22.40;99.90;;;;;;6156390;28;20057;-71
2022/06/26 07:07:08;;;;;;;4.05;2.92;;;22.50;99.90;;;;;;6174068;28;20046;-71
2022/06/26 07:10:10;;;;;;;3.60;2.67;;;22.60;99.90;;;;;;6157041;28;20051;-72
2022/06/26 07:13:13;;;;;;;3.15;2.30;;;22.60;99.90;;;;;;6161315;28;20046;-71
2022/06/26 07:16:15;;;;;;;6.75;5.53;;;22.60;99.90;;;;;;6178605;28;20051;-71
2022/06/26 07:19:17;;;;;;;2.92;1.90;;;22.50;99.90;;;;;;6174028;28;20435;-71
2022/06/26 07:22:19;;;;;;;3.97;3.15;;;22.40;99.90;;;;;;6173916;28;20416;-72
2022/06/26 07:25:21;;;;;;;6.72;5.82;;;22.50;99.90;;;;;;6173281;28;20047;-71
2022/06/26 07:28:24;;;;;;;2.67;2.20;;;22.50;99.90;;;;;;6157382;28;20508;-71
2022/06/26 07:31:26;;;;;;;3.08;1.83;;;22.50;99.90;;;;;;6156393;28;20055;-71
2022/06/26 07:34:28;;;;;;;4.55;4.15;;;22.60;99.90;;;;;;6166992;28;20428;-71
2022/06/26 07:37:30;;;;;;;2.40;1.85;;;22.80;99.90;;;;;;6156829;28;20416;-71
2022/06/26 07:40:33;;;;;;;4.70;4.30;;;22.90;99.90;;;;;;6173996;28;20046;-72
2022/06/26 07:43:36;;;;;;;3.57;3.03;;;23.00;99.90;;;;;;6154635;28;20054;-71
2022/06/26 07:46:38;;;;;;;;;;;23.10;99.90;;;;;;6155912;28;20054;-71
2022/06/26 07:49:40;;;;;;;3.03;2.00;;;23.30;99.90;;;;;;6197357;28;19921;-71
2022/06/26 07:52:42;;;;;;;2.08;1.88;;;23.30;99.90;;;;;;6197936;28;20054;-71
2022/06/26 07:55:44;;;;;;;7.43;6.68;;;23.30;99.90;;;;;;6157874;28;20054;-71
2022/06/26 07:58:47;;;;;;;2.83;2.63;;;23.60;99.90;;;;;;6149867;28;20054;-71
2022/06/26 08:01:49;;;;;;;7.13;4.55;;;23.90;99.90;;;;;;6156147;28;20049;-71
2022/06/26 08:04:51;;;;;;;5.97;5.47;;;24.10;99.90;;;;;;6181993;28;20054;-71
2022/06/26 08:07:53;;;;;;;6.95;6.15;;;24.20;99.90;;;;;;6197754;28;20129;-71
2022/06/26 08:10:55;;;;;;;2.67;2.47;;;24.10;99.90;;;;;;6175164;28;20046;-71
2022/06/26 08:13:58;;;;;;;2.78;2.25;;;24.00;99.90;;;;;;6155337;28;20504;-71
2022/06/26 08:17:00;;;;;;;8.20;7.43;;;24.10;99.90;;;;;;6177333;28;20066;-70
2022/06/26 08:20:02;;;;;;;5.85;4.63;;;24.40;99.90;;;;;;6178246;28;20055;-82
2022/06/26 08:23:04;;;;;;;10.80;7.68;;;24.50;99.90;;;;;;6165272;28;20043;-72
2022/06/26 08:26:06;;;;;;;7.65;6.50;;;24.40;99.90;;;;;;6161902;28;20054;-72
2022/06/26 08:29:09;;;;;;;6.82;5.85;;;24.40;99.90;;;;;;6197576;28;20085;-72
2022/06/26 08:32:11;;;;;;;8.32;7.22;;;24.30;99.90;;;;;;6160392;28;20055;-73
2022/06/26 08:35:13;;;;;;;6.88;6.18;;;24.40;99.90;;;;;;6155586;28;20413;-73
2022/06/26 08:38:15;;;;;;;4.07;3.47;;;24.40;99.90;;;;;;6179789;28;20058;-73
2022/06/26 08:41:22;;;;;;;8.63;6.97;;;24.50;99.90;;;;;;6200198;28;20165;-72
2022/06/26 08:44:25;;;;;;;7.43;6.72;;;24.60;99.90;;;;;;6142506;28;20056;-73
2022/06/26 08:47:31;;;;;;;7.35;6.60;;;24.60;99.90;;;;;;6160507;28;20054;-72
2022/06/26 08:50:33;;;;;;;6.63;6.03;;;24.60;99.90;;;;;;6176658;28;20057;-73
2022/06/26 08:53:36;;;;;;;8.38;7.45;;;24.60;99.90;;;;;;6156592;28;20047;-72
2022/06/26 08:56:41;;;;;;;6.47;5.90;;;24.60;99.90;;;;;;6170028;28;20057;-72
2022/06/26 08:59:44;;;;;;;6.40;5.10;;;24.50;99.90;;;;;;6177980;28;20058;-73
2022/06/26 09:02:46;;;;;;;;;;;24.40;99.90;;;;;;6177291;28;20042;-72
2022/06/26 09:05:48;;;;;;;5.88;4.97;;;24.40;99.90;;;;;;6175706;28;19932;-72
2022/06/26 09:08:50;;;;;;;5.40;4.45;;;24.30;99.90;;;;;;6160035;28;20062;-72
2022/06/26 09:11:54;;;;;;;7.50;6.60;;;24.30;99.90;;;;;;6177019;28;20042;-73
2022/06/26 09:14:58;;;;;;;;;;;24.30;99.90;;;;;;6188540;28;20393;-72
2022/06/26 09:18:02;;;;;;;3.35;2.65;;;24.40;99.90;;;;;;6159094;28;19922;-73
2022/06/26 09:21:05;;;;;;;4.00;3.58;;;24.40;99.90;;;;;;6175996;28;20053;-73
2022/06/26 09:24:10;;;;;;;4.57;3.47;;;24.50;99.90;;;;;;6175854;28;20046;-73
2022/06/26 09:27:14;;;;;;;3.88;3.05;;;24.30;99.90;;;;;;6159743;28;20558;-71
2022/06/26 09:30:17;;;;;;;;;;;24.30;99.90;;;;;;6188789;28;20166;-71
2022/06/26 09:33:20;;;;;;;5.93;3.00;;;24.20;99.90;;;;;;6158749;28;19930;-71
2022/06/26 09:36:22;;;;;;;4.13;3.72;;;24.30;99.90;;;;;;6169490;28;20059;-71
2022/06/26 09:39:24;;;;;;;5.18;3.85;;;24.40;99.90;;;;;;6176487;28;20523;-71
2022/06/26 09:42:27;;;;;;;3.92;3.22;;;24.40;99.90;;;;;;6174898;28;20178;-72
2022/06/26 09:45:40;;;;;;;4.97;3.00;;;24.40;99.90;;;;;;6176602;28;20192;-71
2022/06/26 09:48:43;;;;;;;3.83;2.90;;;24.40;99.90;;;;;;6178100;28;20466;-71
2022/06/26 09:51:45;;;;;;;3.50;2.40;;;24.40;99.90;;;;;;6154753;28;20046;-72
2022/06/26 09:54:47;;;;;;;3.95;2.35;;;24.30;99.90;;;;;;6176350;28;20051;-72
2022/06/26 09:57:50;;;;;;;4.95;3.05;;;24.20;99.90;;;;;;6176390;28;20555;-72
2022/06/26 10:07:34;;;;;;;5.88;2.42;;;24.30;99.90;;;;;;6165159;28;20051;-69
2022/06/26 10:10:37;;;;;;;3.25;2.00;;;24.40;99.90;;;;;;6171911;28;20069;-69
2022/06/26 10:13:41;;;;;;;2.97;2.40;;;24.50;99.90;;;;;;6153046;28;20215;-69
2022/06/26 10:17:00;;;;;;;4.50;2.15;;;24.70;99.90;;;;;;6174508;28;20490;-69
2022/06/26 10:20:08;;;;;;;2.85;2.40;;;24.80;99.90;;;;;;6171300;28;20567;-68
2022/06/26 10:23:10;;;;;;;4.40;2.90;;;24.90;99.90;;;;;;6170053;28;20050;-69
2022/06/26 10:26:13;;;;;;;3.22;2.13;;;25.00;99.90;;;;;;6157496;28;20058;-69
2022/06/26 10:29:15;;;;;;;3.40;2.50;;;25.00;99.90;;;;;;6173141;28;20043;-69
2022/06/26 10:32:24;;;;;;;3.08;2.22;;;25.00;99.90;;;;;;6156740;28;20062;-69
2022/06/26 10:35:38;;;;;;;2.15;1.95;;;24.80;99.90;;;;;;6173849;28;20042;-69
2022/06/26 10:38:40;;;;;;;3.35;1.90;;;24.70;99.90;;;;;;6172284;28;20050;-69
2022/06/26 10:45:06;;;;;;;3.78;2.03;;;24.70;99.90;;;;;;6167554;28;20047;-70
2022/06/26 10:48:21;;;;;;;2.10;1.80;;;24.80;99.90;;;;;;6170544;28;20423;-70
2022/06/26 10:51:30;;;;;;;1.95;1.48;;;24.90;99.90;;;;;;6142492;28;20051;-69
2022/06/26 10:54:33;;;;;;;3.20;1.60;;;25.00;99.90;;;;;;6181252;28;20042;-71
2022/06/26 10:57:36;;;;;;;2.88;1.70;;;25.30;99.90;;;;;;6184251;28;20531;-71
2022/06/26 11:00:38;;;;;;;;;;;25.40;99.90;;;;;;6173843;28;20047;-72
2022/06/26 11:03:42;;;;;;;2.22;1.48;;;25.30;99.90;;;;;;6116449;28;20303;-71
2022/06/26 11:06:44;;;;;;;2.78;1.50;;;25.30;99.70;;;;;;6154702;28;20047;-70
2022/06/26 11:09:46;;;;;;;2.63;1.40;;;25.20;99.50;;;;;;6172797;28;20065;-70
2022/06/26 11:12:50;;;;;;;2.53;1.55;;;25.20;99.40;;;;;;6172359;28;20061;-71
2022/06/26 11:15:51;;;;;;;1.85;1.48;;;25.30;99.20;;;;;;6172064;28;20046;-71
2022/06/26 11:18:55;;;;;;;1.75;1.40;;;25.30;99.10;;;;;;6172856;28;20523;-70
2022/06/26 11:22:05;;;;;;;3.85;1.75;;;25.50;98.90;;;;;;6170208;28;20129;-71
2022/06/26 11:25:07;;;;;;;1.45;1.15;;;25.40;98.60;;;;;;6173252;28;20416;-71
2022/06/26 11:28:10;;;;;;;3.38;1.60;;;25.30;98.60;;;;;;6176320;28;20050;-71
2022/06/26 11:31:22;;;;;;;5.35;1.80;;;25.30;98.80;;;;;;6175851;28;20415;-70
2022/06/26 11:34:26;;;;;;;3.33;1.60;;;25.30;98.40;;;;;;6169944;28;20051;-71
2022/06/26 11:37:35;;;;;;;136.82;21.55;;;25.30;98.70;;;;;;6174293;28;20055;-75
2022/06/26 11:40:37;;;;;;;4.70;1.95;;;25.40;99.90;;;;;;6169395;28;20082;-74
2022/06/26 11:43:45;;;;;;;9.30;2.25;;;25.40;99.90;;;;;;6173757;28;20051;-75
2022/06/26 11:46:47;;;;;;;5.82;2.33;;;25.40;99.90;;;;;;6175718;28;20047;-74
2022/06/26 11:49:51;;;;;;;4.93;1.70;;;25.30;99.90;;;;;;6168455;28;20051;-75
2022/06/26 11:52:53;;;;;;;4.30;1.85;;;25.00;99.10;;;;;;6167903;28;20039;-74
2022/06/26 11:55:57;;;;;;;6.15;2.38;;;25.00;99.90;;;;;;6171445;28;20481;-74
2022/06/26 11:59:00;;;;;;;7.97;2.13;;;25.30;99.90;;;;;;6163016;28;20484;-74
2022/06/26 12:02:02;;;;;;;6.70;1.92;;;25.30;99.90;;;;;;6173418;28;20412;-74
2022/06/26 12:05:06;;;;;;;3.95;1.60;;;25.20;99.70;;;;;;6183630;28;20055;-74
2022/06/26 12:08:15;;;;;;;4.38;2.00;;;25.40;99.90;;;;;;6171197;28;20047;-74
2022/06/26 12:11:17;;;;;;;3.45;2.10;;;25.30;98.80;;;;;;6171722;28;20102;-74
2022/06/26 12:14:21;;;;;;;3.35;1.70;;;25.30;99.20;;;;;;6172371;28;20407;-74
2022/06/26 12:17:24;;;;;;;4.10;1.77;;;25.30;99.90;;;;;;6171304;28;20055;-74
2022/06/26 12:20:34;;;;;;;4.07;1.63;;;25.30;99.90;;;;;;6177874;28;20412;-75
2022/06/26 12:23:38;;;;;;;3.28;1.50;;;25.30;99.90;;;;;;6172341;28;20512;-75
2022/06/26 12:26:40;;;;;;;;;;;25.40;99.90;;;;;;6170733;28;20078;-74
2022/06/26 12:29:42;;;;;;;5.70;1.67;;;25.40;99.90;;;;;;6171914;28;19922;-74
2022/06/26 12:32:44;;;;;;;3.63;1.58;;;25.30;99.90;;;;;;6174063;28;20050;-74
2022/06/26 12:35:48;;;;;;;1.95;1.50;;;25.30;99.90;;;;;;6172898;28;20043;-74
2022/06/26 12:38:49;;;;;;;;;;;25.20;99.90;;;;;;6192869;28;20059;-74
2022/06/26 12:41:51;;;;;;;3.92;1.60;;;25.10;99.90;;;;;;6154121;28;19922;-74
2022/06/26 12:44:53;;;;;;;2.35;1.27;;;25.30;99.90;;;;;;6164924;28;20124;-73
2022/06/26 12:47:55;;;;;;;2.90;1.77;;;25.30;99.90;;;;;;6166981;28;20415;-74
2022/06/26 12:50:59;;;;;;;2.92;1.67;;;25.20;99.90;;;;;;6160380;28;20471;-74
2022/06/26 12:54:00;;;;;;;;;;;25.30;99.90;;;;;;6178424;28;20054;-74
2022/06/26 12:57:03;;;;;;;4.25;1.48;;;25.30;99.90;;;;;;6162504;28;20335;-74
2022/06/26 13:00:06;;;;;;;4.53;1.55;;;25.30;99.90;;;;;;6166663;28;20044;-74
2022/06/26 13:03:08;;;;;;;;;;;25.30;99.90;;;;;;6169573;28;20057;-74
2022/06/26 13:06:11;;;;;;;2.47;1.75;;;25.30;99.90;;;;;;6154052;28;19946;-74
2022/06/26 13:09:13;;;;;;;2.13;1.50;;;25.20;99.90;;;;;;6170902;28;20542;-74
2022/06/26 13:12:15;;;;;;;2.10;1.45;;;25.20;99.90;;;;;;6175776;28;20050;-74
2022/06/26 13:15:17;;;;;;;4.72;1.58;;;25.20;99.90;;;;;;6175887;28;20054;-74
2022/06/26 13:18:19;;;;;;;1.83;1.30;;;25.30;99.90;;;;;;6174119;28;20062;-73
2022/06/26 13:21:22;;;;;;;3.45;1.60;;;25.30;99.90;;;;;;6165873;28;20055;-72
2022/06/26 13:24:24;;;;;;;3.25;1.30;;;25.30;99.90;;;;;;6174643;28;20653;-72
2022/06/26 13:27:26;;;;;;;2.22;1.30;;;25.30;99.90;;;;;;6180824;28;20050;-72
2022/06/26 13:30:28;;;;;;;2.63;1.50;;;25.10;99.90;;;;;;6180869;28;20050;-72
2022/06/26 13:33:30;;;;;;;2.42;1.30;;;25.20;99.90;;;;;;6176312;28;20054;-72
2022/06/26 13:36:33;;;;;;;2.75;1.45;;;25.20;98.30;;;;;;6176027;28;20043;-72
2022/06/26 13:39:35;;;;;;;1.65;1.33;;;25.30;99.90;;;;;;6166189;28;20053;-72
2022/06/26 13:42:37;;;;;;;2.92;1.40;;;25.30;99.90;;;;;;6173954;28;20062;-72
2022/06/26 13:45:39;;;;;;;1.95;1.35;;;25.40;99.90;;;;;;6176407;28;20043;-72
2022/06/26 13:48:41;;;;;;;2.92;1.50;;;25.40;99.90;;;;;;6175008;28;20054;-72
2022/06/26 13:51:44;;;;;;;2.85;1.10;;;25.30;98.60;;;;;;6173824;28;20046;-72
2022/06/26 13:54:46;;;;;;;;;;;25.30;99.90;;;;;;6175040;28;20117;-73
2022/06/26 13:57:48;;;;;;;2.30;1.40;;;25.00;98.70;;;;;;6172690;28;19922;-72
2022/06/26 14:00:50;;;;;;;2.70;1.33;;;25.00;99.10;;;;;;6165527;28;20424;-73
2022/06/26 14:03:53;;;;;;;2.35;1.30;;;24.80;98.80;;;;;;6176444;28;20050;-72
2022/06/26 14:06:56;;;;;;;2.37;1.20;;;24.80;98.80;;;;;;6175238;28;20042;-72
2022/06/26 14:09:58;;;;;;;1.27;1.15;;;24.80;99.70;;;;;;6173721;28;20043;-72
2022/06/26 14:13:00;;;;;;;2.90;1.50;;;24.70;99.90;;;;;;6173512;28;20492;-72
2022/06/26 14:16:02;;;;;;;2.75;1.50;;;24.70;99.30;;;;;;6173298;28;20054;-73
2022/06/26 14:19:04;;;;;;;4.65;1.50;;;24.50;98.50;;;;;;6171928;28;20065;-72
2022/06/26 14:28:47;;;;;;;2.97;1.63;;;24.90;99.90;;;;;;6170290;28;20043;-73
2022/06/26 14:31:49;;;;;;;2.65;1.60;;;25.10;99.90;;;;;;6159498;28;20047;-73
2022/06/26 14:34:51;;;;;;;2.45;1.50;;;25.20;99.90;;;;;;6175091;28;20043;-72
2022/06/26 14:37:55;;;;;;;2.15;1.52;;;25.20;99.70;;;;;;6173870;28;20059;-72
2022/06/26 14:40:57;;;;;;;;;;;25.20;99.00;;;;;;6189470;28;20500;-73
2022/06/26 14:43:59;;;;;;;2.75;1.75;;;24.90;98.60;;;;;;6173449;28;19936;-73
2022/06/26 14:47:01;;;;;;;2.33;1.35;;;24.50;99.30;;;;;;6172295;28;20050;-72
2022/06/26 14:50:04;;;;;;;2.72;1.50;;;24.50;99.90;;;;;;6174714;28;20057;-72
2022/06/26 14:53:07;;;;;;;2.50;1.80;;;24.60;99.70;;;;;;6183727;28;20061;-73
2022/06/26 14:56:09;;;;;;;4.60;1.75;;;24.50;98.60;;;;;;6178283;28;20043;-72
2022/06/26 14:59:11;;;;;;;4.93;1.92;;;24.60;99.60;;;;;;6172605;28;20058;-73
2022/06/26 15:02:13;;;;;;;2.85;1.52;;;24.70;99.50;;;;;;6172379;28;20050;-72
2022/06/26 15:05:15;;;;;;;3.40;1.88;;;24.80;99.50;;;;;;6166035;28;20502;-72
2022/06/26 15:08:18;;;;;;;6.78;2.15;;;24.80;99.00;;;;;;6156971;28;20510;-73
2022/06/26 15:11:22;;;;;;;2.55;1.52;;;24.80;98.60;;;;;;6176861;28;20522;-74
2022/06/26 15:14:24;;;;;;;2.85;1.50;;;24.70;99.40;;;;;;6177688;28;20496;-73
2022/06/26 15:17:26;;;;;;;4.47;2.40;;;24.60;99.60;;;;;;6159446;28;20510;-74
2022/06/26 15:20:28;;;;;;;3.45;1.75;;;24.50;99.00;;;;;;6167068;28;20043;-73
2022/06/26 15:23:31;;;;;;;4.30;2.08;;;24.30;99.30;;;;;;6168999;28;20620;-72
2022/06/26 15:26:34;;;;;;;3.53;1.80;;;24.20;99.90;;;;;;6179619;28;20047;-72
2022/06/26 15:29:36;;;;;;;2.97;1.70;;;24.30;99.90;;;;;;6172415;28;20516;-72
2022/06/26 15:32:38;;;;;;;4.95;2.45;;;24.60;99.90;;;;;;6171914;28;20054;-72
2022/06/26 15:35:40;;;;;;;3.50;1.85;;;24.70;99.70;;;;;;6171794;28;20058;-72
2022/06/26 15:38:43;;;;;;;4.57;2.50;;;24.60;99.60;;;;;;6163133;28;20058;-72
2022/06/26 15:41:45;;;;;;;;;;;24.60;99.50;;;;;;6171934;28;20883;-73
2022/06/26 15:44:47;;;;;;;3.38;1.48;;;24.60;99.90;;;;;;6173100;28;19929;-73
2022/06/26 15:47:49;;;;;;;3.30;1.88;;;24.90;99.90;;;;;;6189038;28;20046;-74
2022/06/26 15:50:51;;;;;;;3.28;1.75;;;25.00;99.60;;;;;;6158816;28;20416;-71
2022/06/26 15:53:54;;;;;;;7.20;2.30;;;25.00;99.50;;;;;;6170206;28;20194;-71
2022/06/26 15:56:56;;;;;;;5.45;1.92;;;24.90;99.90;;;;;;6172148;28;20212;-70
2022/06/26 15:59:58;;;;;;;3.65;1.90;;;24.90;99.90;;;;;;6173703;28;20061;-70
2022/06/26 16:03:00;;;;;;;5.70;2.50;;;24.80;99.90;;;;;;6178555;28;20054;-69
2022/06/26 16:06:02;;;;;;;4.03;2.33;;;24.80;99.90;;;;;;6172645;28;20062;-69
2022/06/26 16:09:05;;;;;;;5.75;2.08;;;24.70;99.90;;;;;;6171257;28;20042;-70